createdAt,value
2024-03-30T00:00:26.047Z,69.35
2024-03-30T00:03:20.646Z,69.54
2024-03-30T00:06:12.011Z,70.01
2024-03-30T00:09:04.459Z,70.26
2024-03-30T00:11:56.081Z,70.49
2024-03-30T00:14:47.522Z,70.81
2024-03-30T00:17:40.668Z,71.15
2024-03-30T00:20:32.974Z,71.20
2024-03-30T00:23:24.393Z,71.43
2024-03-30T00:26:16.542Z,71.52
2024-03-30T00:29:08.430Z,71.53
2024-03-30T00:31:59.937Z,71.69
2024-03-30T00:34:51.498Z,71.77
2024-03-30T00:37:43.362Z,71.72
2024-03-30T00:40:34.771Z,71.87
2024-03-30T00:43:26.191Z,72.08
2024-03-30T00:46:17.670Z,72.35
2024-03-30T00:49:09.180Z,72.58
2024-03-30T00:52:00.643Z,72.76
2024-03-30T00:54:52.055Z,73.01
2024-03-30T00:57:43.904Z,73.33
2024-03-30T01:00:38.492Z,73.53
2024-03-30T01:03:30.195Z,73.73
2024-03-30T01:06:21.987Z,73.99
2024-03-30T01:09:13.711Z,74.31
2024-03-30T01:12:06.209Z,74.48
2024-03-30T01:14:58.971Z,74.52
2024-03-30T01:17:51.468Z,74.89
2024-03-30T01:20:44.379Z,75.03
2024-03-30T01:23:37.945Z,75.17
2024-03-30T01:26:29.877Z,75.26
2024-03-30T01:29:26.153Z,75.68
2024-03-30T01:32:18.598Z,76.12
2024-03-30T01:35:13.234Z,76.27
2024-03-30T01:38:07.204Z,76.33
2024-03-30T01:40:58.939Z,76.45
2024-03-30T01:43:50.381Z,76.44
2024-03-30T01:46:42.903Z,76.68
2024-03-30T01:49:34.672Z,76.48
2024-03-30T01:52:29.628Z,76.40
2024-03-30T01:55:21.599Z,76.44
2024-03-30T01:58:17.038Z,76.48
2024-03-30T02:01:11.067Z,76.50
2024-03-30T02:04:02.860Z,76.61
2024-03-30T02:06:56.898Z,76.73
2024-03-30T02:09:49.518Z,76.83
2024-03-30T02:12:41.541Z,77.01
2024-03-30T02:15:32.906Z,77.00
2024-03-30T02:18:24.497Z,76.97
2024-03-30T02:21:18.567Z,76.84
2024-03-30T02:24:10.327Z,76.84
2024-03-30T02:27:02.686Z,76.81
2024-03-30T02:30:00.471Z,76.74
2024-03-30T02:32:53.327Z,76.69
2024-03-30T02:35:44.997Z,76.80
2024-03-30T02:38:36.980Z,76.94
2024-03-30T02:41:28.509Z,77.06
2024-03-30T02:44:20.005Z,77.08
2024-03-30T02:47:13.709Z,77.22
2024-03-30T02:50:05.615Z,77.48
2024-03-30T02:52:57.017Z,77.67
2024-03-30T02:55:48.585Z,77.75
2024-03-30T02:58:40.778Z,77.68
2024-03-30T03:01:41.434Z,77.68
2024-03-30T03:04:33.177Z,77.67
2024-03-30T03:07:24.660Z,77.64
2024-03-30T03:10:16.229Z,77.57
2024-03-30T03:13:07.855Z,77.59
2024-03-30T03:16:04.390Z,77.71
2024-03-30T03:18:55.770Z,77.78
2024-03-30T03:21:47.593Z,77.73
2024-03-30T03:24:39.215Z,77.62
2024-03-30T03:27:30.729Z,77.60
2024-03-30T03:30:22.236Z,77.49
2024-03-30T03:33:14.808Z,77.47
2024-03-30T03:36:07.203Z,77.55
2024-03-30T03:38:58.550Z,77.57
2024-03-30T03:41:50.081Z,77.54
2024-03-30T03:44:41.478Z,77.57
2024-03-30T03:47:32.883Z,77.78
2024-03-30T03:50:24.264Z,77.89
2024-03-30T03:53:15.729Z,77.82
2024-03-30T03:56:07.559Z,77.73
2024-03-30T03:58:59.233Z,77.65
2024-03-30T04:01:50.680Z,77.68
2024-03-30T04:04:42.052Z,77.60
2024-03-30T04:07:33.476Z,77.63
2024-03-30T04:10:25.216Z,77.55
2024-03-30T04:13:16.622Z,77.54
2024-03-30T04:16:08.990Z,77.46
2024-03-30T04:19:00.503Z,77.51
2024-03-30T04:21:57.123Z,77.37
2024-03-30T04:24:50.579Z,77.39
2024-03-30T04:27:42.914Z,77.45
2024-03-30T04:30:34.416Z,77.45
2024-03-30T04:33:28.265Z,77.45
2024-03-30T04:36:19.755Z,77.46
2024-03-30T04:39:11.234Z,77.46
2024-03-30T04:42:03.517Z,77.51
2024-03-30T04:44:55.288Z,77.56
2024-03-30T04:47:46.672Z,77.45
2024-03-30T04:50:38.058Z,77.38
2024-03-30T04:53:33.805Z,77.43
2024-03-30T04:56:25.819Z,77.28
2024-03-30T04:59:17.570Z,77.18
2024-03-30T05:02:09.463Z,77.07
2024-03-30T05:05:01.440Z,76.93
2024-03-30T05:07:52.842Z,76.85
2024-03-30T05:10:47.007Z,76.84
2024-03-30T05:13:39.402Z,76.79
2024-03-30T05:16:31.466Z,76.81
2024-03-30T05:19:40.613Z,76.71
2024-03-30T05:22:32.140Z,76.78
2024-03-30T05:25:23.446Z,76.88
2024-03-30T05:28:16.125Z,77.01
2024-03-30T05:31:10.630Z,77.18
2024-03-30T05:34:02.154Z,77.37
2024-03-30T05:36:53.780Z,77.57
2024-03-30T05:39:45.625Z,77.61
2024-03-30T05:42:37.109Z,77.67
2024-03-30T05:45:28.779Z,77.46
2024-03-30T05:48:20.167Z,77.43
2024-03-30T05:51:11.647Z,77.39
2024-03-30T05:54:07.202Z,77.30
2024-03-30T05:56:58.962Z,77.16
2024-03-30T05:59:52.721Z,77.17
2024-03-30T06:02:45.595Z,77.15
2024-03-30T06:05:37.316Z,77.24
2024-03-30T06:08:28.896Z,77.21
2024-03-30T06:11:23.873Z,77.27
2024-03-30T06:14:15.465Z,77.19
2024-03-30T06:17:08.231Z,77.07
2024-03-30T06:20:01.556Z,77.18
2024-03-30T06:22:53.016Z,77.14
2024-03-30T06:25:45.053Z,77.21
2024-03-30T06:28:36.558Z,77.48
2024-03-30T06:31:28.231Z,77.56
2024-03-30T06:34:19.688Z,77.79
2024-03-30T06:37:11.514Z,77.78
2024-03-30T06:40:20.309Z,77.66
2024-03-30T06:43:28.984Z,77.67
2024-03-30T06:46:20.502Z,77.61
2024-03-30T06:49:11.898Z,77.43
2024-03-30T06:52:03.437Z,77.29
2024-03-30T06:54:56.276Z,77.18
2024-03-30T06:57:49.096Z,77.00
2024-03-30T07:00:41.807Z,76.67
2024-03-30T07:03:33.248Z,76.36
2024-03-30T07:06:24.860Z,76.31
2024-03-30T07:09:16.713Z,76.22
2024-03-30T07:12:08.956Z,75.39
2024-03-30T07:15:00.418Z,73.63
2024-03-30T07:17:52.462Z,72.25
2024-03-30T07:20:44.144Z,70.39
2024-03-30T07:23:35.712Z,68.90
2024-03-30T07:26:27.145Z,67.35
2024-03-30T07:29:18.440Z,65.72
2024-03-30T07:32:09.962Z,64.71
2024-03-30T07:35:01.518Z,61.99
2024-03-30T07:37:52.962Z,60.47
2024-03-30T07:40:44.292Z,59.80
2024-03-30T07:43:35.772Z,58.94
2024-03-30T07:46:27.153Z,56.69
2024-03-30T07:49:18.622Z,55.19
2024-03-30T07:52:10.365Z,54.37
2024-03-30T07:55:01.800Z,52.69
2024-03-30T07:57:53.266Z,50.52
2024-03-30T08:00:44.824Z,48.43
2024-03-30T08:03:36.205Z,47.35
2024-03-30T08:06:27.769Z,45.01
2024-03-30T08:09:19.264Z,44.20
2024-03-30T08:12:10.885Z,43.36
2024-03-30T08:15:03.294Z,41.86
2024-03-30T08:17:54.725Z,40.99
2024-03-30T08:20:46.401Z,40.28
2024-03-30T08:23:38.103Z,39.34
2024-03-30T08:26:29.511Z,38.39
2024-03-30T08:29:21.081Z,36.60
2024-03-30T08:32:12.411Z,35.82
2024-03-30T08:35:04.545Z,35.39
2024-03-30T08:37:56.091Z,33.86
2024-03-30T08:40:49.187Z,33.77
2024-03-30T08:43:40.552Z,32.71
2024-03-30T08:46:32.107Z,32.03
2024-03-30T08:49:23.463Z,30.75
2024-03-30T08:52:15.266Z,30.89
2024-03-30T08:55:07.224Z,30.78
2024-03-30T08:57:58.847Z,30.40
2024-03-30T09:00:50.226Z,29.82
2024-03-30T09:03:45.080Z,29.12
2024-03-30T09:06:36.570Z,29.35
2024-03-30T09:09:31.418Z,28.96
2024-03-30T09:12:24.468Z,28.24
2024-03-30T09:15:16.193Z,27.42
2024-03-30T09:18:08.245Z,28.33
2024-03-30T09:21:00.674Z,27.98
2024-03-30T09:23:52.709Z,27.88
2024-03-30T09:26:44.458Z,27.61
2024-03-30T09:29:35.876Z,28.68
2024-03-30T09:32:27.356Z,29.56
2024-03-30T09:35:18.876Z,31.39
2024-03-30T09:38:10.472Z,33.08
2024-03-30T09:41:06.451Z,33.01
2024-03-30T09:43:58.167Z,32.03
2024-03-30T09:46:52.444Z,30.31
2024-03-30T09:49:48.571Z,29.40
2024-03-30T09:52:41.966Z,27.81
2024-03-30T09:55:34.136Z,26.89
2024-03-30T09:58:25.858Z,25.93
2024-03-30T10:01:19.389Z,26.44
2024-03-30T10:04:10.875Z,27.63
2024-03-30T10:07:06.680Z,29.39
2024-03-30T10:10:05.194Z,31.14
2024-03-30T10:13:02.579Z,33.31
2024-03-30T10:15:54.286Z,35.28
2024-03-30T10:18:50.721Z,36.97
2024-03-30T10:21:43.214Z,38.17
2024-03-30T10:24:37.142Z,38.69
2024-03-30T10:27:28.710Z,37.30
2024-03-30T10:30:20.201Z,36.56
2024-03-30T10:33:13.454Z,35.35
2024-03-30T10:38:57.944Z,34.65
2024-03-30T10:41:49.839Z,34.66
2024-03-30T10:44:41.179Z,34.72
2024-03-30T10:47:33.019Z,35.23
2024-03-30T10:50:27.111Z,36.24
2024-03-30T10:53:21.850Z,36.18
2024-03-30T10:56:13.776Z,34.40
2024-03-30T10:59:06.845Z,31.92
2024-03-30T11:01:58.496Z,32.04
2024-03-30T11:04:52.218Z,31.77
2024-03-30T11:07:44.823Z,30.52
2024-03-30T11:10:36.536Z,28.90
2024-03-30T11:13:28.289Z,27.63
2024-03-30T11:16:19.644Z,26.11
2024-03-30T11:19:16.848Z,24.93
2024-03-30T11:22:15.128Z,24.14
2024-03-30T11:25:12.226Z,23.04
2024-03-30T11:28:09.323Z,22.74
2024-03-30T11:31:11.696Z,22.74
2024-03-30T11:34:06.496Z,23.05
2024-03-30T11:37:07.399Z,22.97
2024-03-30T11:40:11.530Z,23.94
2024-03-30T11:43:13.401Z,25.55
2024-03-30T11:46:05.669Z,27.58
2024-03-30T11:48:57.852Z,29.92
2024-03-30T11:51:51.851Z,33.45
2024-03-30T11:54:47.866Z,36.73
2024-03-30T11:57:39.319Z,38.13
2024-03-30T12:00:31.405Z,38.41
2024-03-30T12:03:23.118Z,39.85
2024-03-30T12:06:23.001Z,41.19
2024-03-30T12:09:15.660Z,42.25
2024-03-30T12:12:24.616Z,43.69
2024-03-30T12:15:17.248Z,44.77
2024-03-30T12:18:09.668Z,46.05
2024-03-30T12:21:01.503Z,47.07
2024-03-30T12:23:53.518Z,47.61
2024-03-30T12:26:47.132Z,47.44
2024-03-30T12:29:40.679Z,48.02
2024-03-30T12:32:33.036Z,48.15
2024-03-30T12:35:27.056Z,48.03
2024-03-30T12:38:20.201Z,48.09
2024-03-30T12:41:11.544Z,48.22
2024-03-30T12:44:03.734Z,47.57
2024-03-30T12:46:55.074Z,47.13
2024-03-30T12:49:46.764Z,46.42
2024-03-30T12:52:38.563Z,45.53
2024-03-30T12:55:30.449Z,44.43
2024-03-30T12:58:22.312Z,44.21
2024-03-30T13:01:13.842Z,44.71
2024-03-30T13:04:05.369Z,46.02
2024-03-30T13:07:08.046Z,48.05
2024-03-30T13:10:15.610Z,50.44
2024-03-30T13:13:09.079Z,53.31
2024-03-30T13:16:01.900Z,54.72
2024-03-30T13:18:55.599Z,55.80
2024-03-30T13:21:46.927Z,56.90
2024-03-30T13:24:38.284Z,58.06
2024-03-30T13:27:29.670Z,58.71
2024-03-30T13:30:22.109Z,58.90
2024-03-30T13:33:13.812Z,59.45
2024-03-30T13:36:09.683Z,59.75
2024-03-30T13:39:02.326Z,60.25
2024-03-30T13:41:54.023Z,60.97
2024-03-30T13:44:45.370Z,61.33
2024-03-30T13:47:36.733Z,61.87
2024-03-30T13:50:28.111Z,62.80
2024-03-30T13:53:19.431Z,63.53
2024-03-30T13:56:10.970Z,61.70
2024-03-30T13:59:02.894Z,58.95
2024-03-30T14:01:55.672Z,58.59
2024-03-30T14:04:47.047Z,57.72
2024-03-30T14:07:38.645Z,57.23
2024-03-30T14:10:30.038Z,54.63
2024-03-30T14:13:21.346Z,53.50
2024-03-30T14:16:13.427Z,53.04
2024-03-30T14:19:04.755Z,54.16
2024-03-30T14:21:56.091Z,55.46
2024-03-30T14:24:48.923Z,57.48
2024-03-30T14:27:41.498Z,59.54
2024-03-30T14:30:32.880Z,61.33
2024-03-30T14:33:24.200Z,62.39
2024-03-30T14:36:26.113Z,63.25
2024-03-30T14:39:17.598Z,64.50
2024-03-30T14:42:09.232Z,65.28
2024-03-30T14:45:00.576Z,66.05
2024-03-30T14:47:52.267Z,66.60
2024-03-30T14:50:43.656Z,66.63
2024-03-30T14:53:35.129Z,66.05
2024-03-30T14:56:26.433Z,65.52
2024-03-30T14:59:17.786Z,64.57
2024-03-30T15:02:09.393Z,63.62
2024-03-30T15:05:00.722Z,62.65
2024-03-30T15:07:52.107Z,62.27
2024-03-30T15:10:43.518Z,62.64
2024-03-30T15:13:35.106Z,62.80
2024-03-30T15:16:27.059Z,62.96
2024-03-30T15:19:18.426Z,63.47
2024-03-30T15:22:09.807Z,64.13
2024-03-30T15:25:01.113Z,64.24
2024-03-30T15:27:52.522Z,63.24
2024-03-30T15:31:01.838Z,63.17
2024-03-30T15:33:56.005Z,63.06
2024-03-30T15:36:47.343Z,63.09
2024-03-30T15:39:40.007Z,63.33
2024-03-30T15:42:31.819Z,63.24
2024-03-30T15:45:23.194Z,63.38
2024-03-30T15:48:14.490Z,63.24
2024-03-30T15:51:07.045Z,63.42
2024-03-30T15:53:58.363Z,63.84
2024-03-30T15:56:49.713Z,64.33
2024-03-30T15:59:41.039Z,65.00
2024-03-30T16:02:32.428Z,64.86
2024-03-30T16:05:23.846Z,65.06
2024-03-30T16:08:15.208Z,65.13
2024-03-30T16:11:08.395Z,65.50
2024-03-30T16:13:59.969Z,64.71
2024-03-30T16:16:51.353Z,64.09
2024-03-30T16:19:42.821Z,64.03
2024-03-30T16:22:35.009Z,62.93
2024-03-30T16:25:26.500Z,62.23
2024-03-30T16:28:17.869Z,62.12
2024-03-30T16:31:09.145Z,62.10
2024-03-30T16:34:00.928Z,62.13
2024-03-30T16:36:52.242Z,62.16
2024-03-30T16:39:43.656Z,62.27
2024-03-30T16:42:35.105Z,62.34
2024-03-30T16:45:26.515Z,62.07
2024-03-30T16:48:17.859Z,62.20
2024-03-30T16:51:09.255Z,62.61
2024-03-30T16:54:00.618Z,62.75
2024-03-30T16:56:52.239Z,63.05
2024-03-30T16:59:43.670Z,63.26
2024-03-30T17:02:35.399Z,63.72
2024-03-30T17:05:27.133Z,63.74
2024-03-30T17:08:19.338Z,63.78
2024-03-30T17:11:12.456Z,63.32
2024-03-30T17:14:04.374Z,62.90
2024-03-30T17:16:55.706Z,62.19
2024-03-30T17:19:51.894Z,62.50
2024-03-30T17:22:44.533Z,62.69
2024-03-30T17:25:37.268Z,62.51
2024-03-30T17:28:28.740Z,62.67
2024-03-30T17:31:20.095Z,63.26
2024-03-30T17:34:11.443Z,63.60
2024-03-30T17:37:02.789Z,63.80
2024-03-30T17:39:54.085Z,63.91
2024-03-30T17:42:45.486Z,63.99
2024-03-30T17:45:36.884Z,64.38
2024-03-30T17:48:29.033Z,64.23
2024-03-30T17:51:20.761Z,64.22
2024-03-30T17:54:12.089Z,64.40
2024-03-30T17:57:03.603Z,64.66
2024-03-30T17:59:55.246Z,64.88
2024-03-30T18:02:49.823Z,65.16
2024-03-30T18:05:48.203Z,65.37
2024-03-30T18:08:39.841Z,65.83
2024-03-30T18:11:31.193Z,66.06
2024-03-30T18:14:22.590Z,66.34
2024-03-30T18:17:14.460Z,66.67
2024-03-30T18:20:07.295Z,66.97
2024-03-30T18:22:58.694Z,67.08
2024-03-30T18:25:49.998Z,67.42
2024-03-30T18:28:41.626Z,67.79
2024-03-30T18:31:32.982Z,68.22
2024-03-30T18:34:24.535Z,68.44
2024-03-30T18:37:15.856Z,68.82
2024-03-30T18:40:08.513Z,69.17
2024-03-30T18:42:59.981Z,69.57
2024-03-30T18:45:51.341Z,69.82
2024-03-30T18:48:42.791Z,70.00
2024-03-30T18:51:34.373Z,70.15
2024-03-30T18:54:25.799Z,70.27
2024-03-30T18:57:20.858Z,70.47
2024-03-30T19:00:13.955Z,70.69
2024-03-30T19:03:05.673Z,71.04
2024-03-30T19:05:57.946Z,71.07
2024-03-30T19:08:49.280Z,71.26
2024-03-30T19:11:40.616Z,71.51
2024-03-30T19:14:31.996Z,71.53
2024-03-30T19:17:23.407Z,71.71
2024-03-30T19:20:14.945Z,71.82
2024-03-30T19:23:06.835Z,72.07
2024-03-30T19:25:58.218Z,72.31
2024-03-30T19:28:51.509Z,72.48
2024-03-30T19:31:43.604Z,72.95
2024-03-30T19:34:36.864Z,73.27
2024-03-30T19:37:28.223Z,73.39
2024-03-30T19:40:19.949Z,73.56
2024-03-30T19:43:11.291Z,73.72
2024-03-30T19:46:02.679Z,73.88
2024-03-30T19:48:54.696Z,74.04
2024-03-30T19:51:46.174Z,74.37
2024-03-30T19:54:37.555Z,74.48
2024-03-30T19:57:28.994Z,74.63
2024-03-30T20:00:20.728Z,74.63
2024-03-30T20:03:12.114Z,74.85
2024-03-30T20:06:04.563Z,74.98
2024-03-30T20:08:55.880Z,75.03
2024-03-30T20:11:47.270Z,75.14
2024-03-30T20:14:38.746Z,75.35
2024-03-30T20:17:30.487Z,75.45
2024-03-30T20:20:23.786Z,75.65
2024-03-30T20:23:15.286Z,76.05
2024-03-30T20:26:08.160Z,76.15
2024-03-30T20:29:00.782Z,76.40
2024-03-30T20:31:52.216Z,76.66
2024-03-30T20:34:45.235Z,76.92
2024-03-30T20:37:36.978Z,77.12
2024-03-30T20:40:28.641Z,77.30
2024-03-30T20:43:21.527Z,77.48
2024-03-30T20:46:13.553Z,77.65
2024-03-30T20:49:04.969Z,77.80
2024-03-30T20:51:56.452Z,77.92
2024-03-30T20:54:48.049Z,78.20
2024-03-30T20:57:39.520Z,78.38
2024-03-30T21:00:31.331Z,78.41
2024-03-30T21:03:22.835Z,78.63
2024-03-30T21:06:14.278Z,78.97
2024-03-30T21:09:06.361Z,79.34
2024-03-30T21:12:00.212Z,79.74
2024-03-30T21:14:55.088Z,79.98
2024-03-30T21:17:46.800Z,80.34
2024-03-30T21:20:38.584Z,80.60
2024-03-30T21:23:30.765Z,80.94
2024-03-30T21:26:22.291Z,81.37
2024-03-30T21:29:13.677Z,82.04
2024-03-30T21:32:05.771Z,82.41
2024-03-30T21:34:57.332Z,82.72
2024-03-30T21:37:48.794Z,82.96
2024-03-30T21:40:41.155Z,83.21
2024-03-30T21:43:36.140Z,83.47
2024-03-30T21:46:29.987Z,83.83
2024-03-30T21:49:21.856Z,83.88
2024-03-30T21:52:13.672Z,83.84
2024-03-30T21:55:05.260Z,83.85
2024-03-30T21:58:00.087Z,84.00
2024-03-30T22:00:51.552Z,84.04
2024-03-30T22:03:42.937Z,84.13
2024-03-30T22:06:34.451Z,84.38
2024-03-30T22:09:26.009Z,84.42
2024-03-30T22:12:17.614Z,84.37
2024-03-30T22:15:09.746Z,84.25
2024-03-30T22:18:02.000Z,84.02
2024-03-30T22:20:53.524Z,83.94
2024-03-30T22:23:45.576Z,84.01
2024-03-30T22:26:37.058Z,84.24
2024-03-30T22:29:29.636Z,84.48
2024-03-30T22:32:21.085Z,84.69
2024-03-30T22:35:12.886Z,84.50
2024-03-30T22:38:04.867Z,84.79
2024-03-30T22:41:04.028Z,84.73
2024-03-30T22:43:55.508Z,84.86
2024-03-30T22:46:47.250Z,85.06
2024-03-30T22:49:38.769Z,85.27
2024-03-30T22:52:30.228Z,85.35
2024-03-30T22:55:21.815Z,85.46
2024-03-30T22:58:13.259Z,85.58
2024-03-30T23:01:09.769Z,85.82
2024-03-30T23:04:01.228Z,85.93
2024-03-30T23:06:53.954Z,86.09
2024-03-30T23:09:45.386Z,86.17
2024-03-30T23:12:37.021Z,86.11
2024-03-30T23:15:28.696Z,86.22
2024-03-30T23:18:20.213Z,86.32
2024-03-30T23:21:11.743Z,86.28
2024-03-30T23:24:04.168Z,86.46
2024-03-30T23:26:55.768Z,86.36
2024-03-30T23:29:47.186Z,86.50
2024-03-30T23:32:38.853Z,86.67
2024-03-30T23:35:30.325Z,86.66
2024-03-30T23:38:21.733Z,86.69
2024-03-30T23:41:13.408Z,86.82
2024-03-30T23:44:04.986Z,86.83
2024-03-30T23:47:00.765Z,87.11
2024-03-30T23:49:52.429Z,87.36
2024-03-30T23:52:44.864Z,87.39
2024-03-30T23:55:36.839Z,87.51
2024-03-30T23:58:28.329Z,87.60
